sensor_id;sensor_type;location;lat;lon;timestamp;temperature;humidity
8420;DHT22;4247;48.550;8.822;2023-06-14T00:01:41;15.00;72.50
8420;DHT22;4247;48.550;8.822;2023-06-14T00:04:11;14.90;72.00
8420;DHT22;4247;48.550;8.822;2023-06-14T00:06:38;14.80;71.60
8420;DHT22;4247;48.550;8.822;2023-06-14T00:09:06;14.80;71.60
8420;DHT22;4247;48.550;8.822;2023-06-14T00:11:34;14.80;71.80
8420;DHT22;4247;48.550;8.822;2023-06-14T00:14:00;14.80;72.30
8420;DHT22;4247;48.550;8.822;2023-06-14T00:16:29;14.80;73.20
8420;DHT22;4247;48.550;8.822;2023-06-14T00:18:56;14.70;72.20
8420;DHT22;4247;48.550;8.822;2023-06-14T00:21:23;14.70;72.60
8420;DHT22;4247;48.550;8.822;2023-06-14T00:23:49;14.60;72.60
8420;DHT22;4247;48.550;8.822;2023-06-14T00:26:17;14.60;72.80
8420;DHT22;4247;48.550;8.822;2023-06-14T00:28:44;14.60;73.70
8420;DHT22;4247;48.550;8.822;2023-06-14T00:31:11;14.50;73.60
8420;DHT22;4247;48.550;8.822;2023-06-14T00:33:37;14.50;74.00
8420;DHT22;4247;48.550;8.822;2023-06-14T00:36:04;14.50;73.70
8420;DHT22;4247;48.550;8.822;2023-06-14T00:38:31;14.40;74.40
8420;DHT22;4247;48.550;8.822;2023-06-14T00:40:58;14.40;74.30
8420;DHT22;4247;48.550;8.822;2023-06-14T00:43:26;14.40;73.80
8420;DHT22;4247;48.550;8.822;2023-06-14T00:45:53;14.30;74.80
8420;DHT22;4247;48.550;8.822;2023-06-14T00:48:20;14.30;74.30
8420;DHT22;4247;48.550;8.822;2023-06-14T00:50:48;14.20;74.20
8420;DHT22;4247;48.550;8.822;2023-06-14T00:53:16;14.30;74.30
8420;DHT22;4247;48.550;8.822;2023-06-14T00:55:43;14.20;74.30
8420;DHT22;4247;48.550;8.822;2023-06-14T00:58:10;14.20;75.30
8420;DHT22;4247;48.550;8.822;2023-06-14T01:00:39;14.20;74.50
8420;DHT22;4247;48.550;8.822;2023-06-14T01:03:05;14.20;74.40
8420;DHT22;4247;48.550;8.822;2023-06-14T01:05:33;14.30;72.90
8420;DHT22;4247;48.550;8.822;2023-06-14T01:08:20;14.30;71.60
8420;DHT22;4247;48.550;8.822;2023-06-14T01:10:56;14.40;71.30
8420;DHT22;4247;48.550;8.822;2023-06-14T01:13:27;14.40;70.50
8420;DHT22;4247;48.550;8.822;2023-06-14T01:15:56;14.40;69.80
8420;DHT22;4247;48.550;8.822;2023-06-14T01:18:23;14.50;69.50
8420;DHT22;4247;48.550;8.822;2023-06-14T01:20:51;14.40;71.50
8420;DHT22;4247;48.550;8.822;2023-06-14T01:23:22;14.50;72.00
8420;DHT22;4247;48.550;8.822;2023-06-14T01:25:50;14.50;72.60
8420;DHT22;4247;48.550;8.822;2023-06-14T01:28:19;14.40;73.40
8420;DHT22;4247;48.550;8.822;2023-06-14T01:30:47;14.40;74.10
8420;DHT22;4247;48.550;8.822;2023-06-14T01:33:16;14.30;75.00
8420;DHT22;4247;48.550;8.822;2023-06-14T01:35:46;14.30;74.80
8420;DHT22;4247;48.550;8.822;2023-06-14T01:38:13;14.20;74.50
8420;DHT22;4247;48.550;8.822;2023-06-14T01:40:43;14.10;75.40
8420;DHT22;4247;48.550;8.822;2023-06-14T01:43:12;14.10;74.50
8420;DHT22;4247;48.550;8.822;2023-06-14T01:45:40;14.10;75.10
8420;DHT22;4247;48.550;8.822;2023-06-14T01:48:07;14.10;75.20
8420;DHT22;4247;48.550;8.822;2023-06-14T01:50:34;14.10;74.80
8420;DHT22;4247;48.550;8.822;2023-06-14T01:53:01;14.10;75.40
8420;DHT22;4247;48.550;8.822;2023-06-14T01:55:28;14.10;75.50
8420;DHT22;4247;48.550;8.822;2023-06-14T01:57:56;14.00;74.80
8420;DHT22;4247;48.550;8.822;2023-06-14T02:00:24;14.00;75.80
8420;DHT22;4247;48.550;8.822;2023-06-14T02:02:51;14.00;75.50
8420;DHT22;4247;48.550;8.822;2023-06-14T02:05:17;13.90;75.80
8420;DHT22;4247;48.550;8.822;2023-06-14T02:07:45;13.90;76.90
8420;DHT22;4247;48.550;8.822;2023-06-14T02:10:12;13.90;76.70
8420;DHT22;4247;48.550;8.822;2023-06-14T02:12:39;13.90;76.70
8420;DHT22;4247;48.550;8.822;2023-06-14T02:15:08;13.80;77.20
8420;DHT22;4247;48.550;8.822;2023-06-14T02:17:35;13.80;78.20
8420;DHT22;4247;48.550;8.822;2023-06-14T02:20:02;13.80;76.60
8420;DHT22;4247;48.550;8.822;2023-06-14T02:22:31;13.70;77.40
8420;DHT22;4247;48.550;8.822;2023-06-14T02:24:57;13.70;77.90
8420;DHT22;4247;48.550;8.822;2023-06-14T02:27:24;13.60;78.30
8420;DHT22;4247;48.550;8.822;2023-06-14T02:29:51;13.60;77.80
8420;DHT22;4247;48.550;8.822;2023-06-14T02:32:19;13.60;78.30
8420;DHT22;4247;48.550;8.822;2023-06-14T02:34:46;13.60;78.50
8420;DHT22;4247;48.550;8.822;2023-06-14T02:37:15;13.50;78.90
8420;DHT22;4247;48.550;8.822;2023-06-14T02:39:42;13.50;79.30
8420;DHT22;4247;48.550;8.822;2023-06-14T02:42:08;13.40;79.60
8420;DHT22;4247;48.550;8.822;2023-06-14T02:44:35;13.40;78.70
8420;DHT22;4247;48.550;8.822;2023-06-14T02:47:02;13.30;79.30
8420;DHT22;4247;48.550;8.822;2023-06-14T02:49:30;13.30;79.90
8420;DHT22;4247;48.550;8.822;2023-06-14T02:51:57;13.20;80.70
8420;DHT22;4247;48.550;8.822;2023-06-14T02:54:24;13.20;81.10
8420;DHT22;4247;48.550;8.822;2023-06-14T02:56:50;13.20;81.20
8420;DHT22;4247;48.550;8.822;2023-06-14T02:59:17;13.10;80.80
8420;DHT22;4247;48.550;8.822;2023-06-14T03:01:44;13.10;79.70
8420;DHT22;4247;48.550;8.822;2023-06-14T03:04:11;13.10;80.90
8420;DHT22;4247;48.550;8.822;2023-06-14T03:06:39;13.10;80.60
8420;DHT22;4247;48.550;8.822;2023-06-14T03:09:06;13.10;81.20
8420;DHT22;4247;48.550;8.822;2023-06-14T03:11:34;13.10;81.40
8420;DHT22;4247;48.550;8.822;2023-06-14T03:14:02;13.10;81.50
8420;DHT22;4247;48.550;8.822;2023-06-14T03:16:29;13.00;80.40
8420;DHT22;4247;48.550;8.822;2023-06-14T03:18:57;13.00;80.60
8420;DHT22;4247;48.550;8.822;2023-06-14T03:21:23;13.10;80.50
8420;DHT22;4247;48.550;8.822;2023-06-14T03:23:51;13.00;81.70
8420;DHT22;4247;48.550;8.822;2023-06-14T03:26:18;13.00;81.90
8420;DHT22;4247;48.550;8.822;2023-06-14T03:28:45;13.00;81.90
8420;DHT22;4247;48.550;8.822;2023-06-14T03:31:12;13.00;81.50
8420;DHT22;4247;48.550;8.822;2023-06-14T03:33:39;13.00;82.50
8420;DHT22;4247;48.550;8.822;2023-06-14T03:36:06;13.00;82.90
8420;DHT22;4247;48.550;8.822;2023-06-14T03:38:33;13.00;83.30
8420;DHT22;4247;48.550;8.822;2023-06-14T03:41:01;13.00;82.80
8420;DHT22;4247;48.550;8.822;2023-06-14T03:43:28;13.00;82.90
8420;DHT22;4247;48.550;8.822;2023-06-14T03:45:55;13.00;82.90
8420;DHT22;4247;48.550;8.822;2023-06-14T03:48:22;13.00;82.50
8420;DHT22;4247;48.550;8.822;2023-06-14T03:50:49;13.10;82.90
8420;DHT22;4247;48.550;8.822;2023-06-14T03:53:15;13.10;84.10
8420;DHT22;4247;48.550;8.822;2023-06-14T03:55:42;13.20;84.00
8420;DHT22;4247;48.550;8.822;2023-06-14T03:58:10;13.20;83.30
8420;DHT22;4247;48.550;8.822;2023-06-14T04:00:38;13.20;84.30
8420;DHT22;4247;48.550;8.822;2023-06-14T04:03:05;13.30;83.30
8420;DHT22;4247;48.550;8.822;2023-06-14T04:05:32;13.30;84.80
8420;DHT22;4247;48.550;8.822;2023-06-14T04:07:58;13.30;84.50
8420;DHT22;4247;48.550;8.822;2023-06-14T04:10:26;13.40;84.00
8420;DHT22;4247;48.550;8.822;2023-06-14T04:12:53;13.40;85.40
8420;DHT22;4247;48.550;8.822;2023-06-14T04:15:21;13.50;85.70
8420;DHT22;4247;48.550;8.822;2023-06-14T04:17:47;13.50;85.00
8420;DHT22;4247;48.550;8.822;2023-06-14T04:20:14;13.60;85.30
8420;DHT22;4247;48.550;8.822;2023-06-14T04:22:42;13.70;85.20
8420;DHT22;4247;48.550;8.822;2023-06-14T04:25:09;13.80;85.30
8420;DHT22;4247;48.550;8.822;2023-06-14T04:27:37;13.90;85.90
8420;DHT22;4247;48.550;8.822;2023-06-14T04:30:06;14.00;85.90
8420;DHT22;4247;48.550;8.822;2023-06-14T04:32:34;14.10;85.20
8420;DHT22;4247;48.550;8.822;2023-06-14T04:35:04;14.30;86.50
8420;DHT22;4247;48.550;8.822;2023-06-14T04:37:31;14.70;86.50
8420;DHT22;4247;48.550;8.822;2023-06-14T04:39:58;15.20;84.90
8420;DHT22;4247;48.550;8.822;2023-06-14T04:42:26;15.70;84.60
8420;DHT22;4247;48.550;8.822;2023-06-14T04:44:56;16.40;83.20
8420;DHT22;4247;48.550;8.822;2023-06-14T04:47:23;16.80;81.00
8420;DHT22;4247;48.550;8.822;2023-06-14T04:49:56;17.10;79.40
8420;DHT22;4247;48.550;8.822;2023-06-14T04:52:23;16.90;79.00
8420;DHT22;4247;48.550;8.822;2023-06-14T04:54:52;16.60;82.50
8420;DHT22;4247;48.550;8.822;2023-06-14T04:57:19;16.30;84.60
8420;DHT22;4247;48.550;8.822;2023-06-14T04:59:47;16.10;81.70
8420;DHT22;4247;48.550;8.822;2023-06-14T05:02:20;16.00;80.30
8420;DHT22;4247;48.550;8.822;2023-06-14T05:04:47;15.80;80.10
8420;DHT22;4247;48.550;8.822;2023-06-14T05:07:15;15.80;79.60
8420;DHT22;4247;48.550;8.822;2023-06-14T05:09:42;15.70;80.30
8420;DHT22;4247;48.550;8.822;2023-06-14T05:12:09;15.70;81.20
8420;DHT22;4247;48.550;8.822;2023-06-14T05:14:36;15.70;80.30
8420;DHT22;4247;48.550;8.822;2023-06-14T05:17:04;15.80;81.90
8420;DHT22;4247;48.550;8.822;2023-06-14T05:19:31;15.80;84.10
8420;DHT22;4247;48.550;8.822;2023-06-14T05:21:57;15.90;83.60
8420;DHT22;4247;48.550;8.822;2023-06-14T05:24:25;16.00;82.20
8420;DHT22;4247;48.550;8.822;2023-06-14T05:26:52;16.10;84.30
8420;DHT22;4247;48.550;8.822;2023-06-14T05:29:19;16.20;84.70
8420;DHT22;4247;48.550;8.822;2023-06-14T05:31:45;16.30;84.60
8420;DHT22;4247;48.550;8.822;2023-06-14T05:34:12;16.40;84.70
8420;DHT22;4247;48.550;8.822;2023-06-14T05:36:39;16.40;84.50
8420;DHT22;4247;48.550;8.822;2023-06-14T05:39:05;16.50;84.00
8420;DHT22;4247;48.550;8.822;2023-06-14T05:41:35;16.60;85.70
8420;DHT22;4247;48.550;8.822;2023-06-14T05:44:02;16.60;84.40
8420;DHT22;4247;48.550;8.822;2023-06-14T05:46:29;16.70;84.00
8420;DHT22;4247;48.550;8.822;2023-06-14T05:48:56;16.90;83.70
8420;DHT22;4247;48.550;8.822;2023-06-14T05:51:23;17.00;84.10
8420;DHT22;4247;48.550;8.822;2023-06-14T05:53:52;17.10;83.00
8420;DHT22;4247;48.550;8.822;2023-06-14T05:56:19;17.20;83.20
8420;DHT22;4247;48.550;8.822;2023-06-14T05:58:47;17.30;82.50
8420;DHT22;4247;48.550;8.822;2023-06-14T06:01:14;17.30;78.10
8420;DHT22;4247;48.550;8.822;2023-06-14T06:03:42;17.30;76.90
8420;DHT22;4247;48.550;8.822;2023-06-14T06:06:11;17.20;78.60
8420;DHT22;4247;48.550;8.822;2023-06-14T06:08:38;17.20;79.90
8420;DHT22;4247;48.550;8.822;2023-06-14T06:11:04;17.30;78.50
8420;DHT22;4247;48.550;8.822;2023-06-14T06:13:31;17.30;79.60
8420;DHT22;4247;48.550;8.822;2023-06-14T06:15:59;17.40;76.70
8420;DHT22;4247;48.550;8.822;2023-06-14T06:18:26;17.40;76.30
8420;DHT22;4247;48.550;8.822;2023-06-14T06:20:52;17.50;75.70
8420;DHT22;4247;48.550;8.822;2023-06-14T06:23:19;17.50;75.20
8420;DHT22;4247;48.550;8.822;2023-06-14T06:25:46;17.60;75.10
8420;DHT22;4247;48.550;8.822;2023-06-14T06:28:12;17.60;75.00
8420;DHT22;4247;48.550;8.822;2023-06-14T06:30:39;17.70;74.50
8420;DHT22;4247;48.550;8.822;2023-06-14T06:33:07;17.70;74.70
8420;DHT22;4247;48.550;8.822;2023-06-14T06:35:34;17.80;74.30
8420;DHT22;4247;48.550;8.822;2023-06-14T06:38:01;17.80;74.30
8420;DHT22;4247;48.550;8.822;2023-06-14T06:40:27;17.90;73.20
8420;DHT22;4247;48.550;8.822;2023-06-14T06:42:54;18.10;73.00
8420;DHT22;4247;48.550;8.822;2023-06-14T06:45:21;18.20;72.60
8420;DHT22;4247;48.550;8.822;2023-06-14T06:47:48;18.40;73.70
8420;DHT22;4247;48.550;8.822;2023-06-14T06:50:17;18.50;74.60
8420;DHT22;4247;48.550;8.822;2023-06-14T06:52:45;18.60;73.00
8420;DHT22;4247;48.550;8.822;2023-06-14T06:55:11;18.70;72.80
8420;DHT22;4247;48.550;8.822;2023-06-14T06:57:38;18.90;73.20
8420;DHT22;4247;48.550;8.822;2023-06-14T07:00:06;19.00;72.50
8420;DHT22;4247;48.550;8.822;2023-06-14T07:02:35;19.10;73.70
8420;DHT22;4247;48.550;8.822;2023-06-14T07:05:01;19.10;71.00
8420;DHT22;4247;48.550;8.822;2023-06-14T07:07:29;19.20;71.70
8420;DHT22;4247;48.550;8.822;2023-06-14T07:09:56;19.30;71.30
8420;DHT22;4247;48.550;8.822;2023-06-14T07:12:24;19.40;70.40
8420;DHT22;4247;48.550;8.822;2023-06-14T07:14:50;19.40;69.00
8420;DHT22;4247;48.550;8.822;2023-06-14T07:17:17;19.40;69.30
8420;DHT22;4247;48.550;8.822;2023-06-14T07:19:44;19.50;70.50
8420;DHT22;4247;48.550;8.822;2023-06-14T07:22:11;19.70;71.40
8420;DHT22;4247;48.550;8.822;2023-06-14T07:24:39;19.90;70.30
8420;DHT22;4247;48.550;8.822;2023-06-14T07:27:06;20.20;71.00
8420;DHT22;4247;48.550;8.822;2023-06-14T07:29:33;20.50;71.20
8420;DHT22;4247;48.550;8.822;2023-06-14T07:31:59;20.90;70.40
8420;DHT22;4247;48.550;8.822;2023-06-14T07:34:26;21.20;68.80
8420;DHT22;4247;48.550;8.822;2023-06-14T07:36:53;21.40;66.80
8420;DHT22;4247;48.550;8.822;2023-06-14T07:39:20;21.60;66.10
8420;DHT22;4247;48.550;8.822;2023-06-14T07:41:48;21.80;66.40
8420;DHT22;4247;48.550;8.822;2023-06-14T07:44:15;22.10;67.30
8420;DHT22;4247;48.550;8.822;2023-06-14T07:46:42;22.50;66.40
8420;DHT22;4247;48.550;8.822;2023-06-14T07:49:12;22.60;65.60
8420;DHT22;4247;48.550;8.822;2023-06-14T07:51:38;22.80;64.20
8420;DHT22;4247;48.550;8.822;2023-06-14T07:54:05;22.90;65.50
8420;DHT22;4247;48.550;8.822;2023-06-14T07:56:34;22.80;62.50
8420;DHT22;4247;48.550;8.822;2023-06-14T07:59:02;22.80;63.10
8420;DHT22;4247;48.550;8.822;2023-06-14T08:01:29;22.80;64.60
8420;DHT22;4247;48.550;8.822;2023-06-14T08:03:56;23.00;64.60
8420;DHT22;4247;48.550;8.822;2023-06-14T08:06:22;23.20;63.30
8420;DHT22;4247;48.550;8.822;2023-06-14T08:08:49;23.30;62.10
8420;DHT22;4247;48.550;8.822;2023-06-14T08:11:16;23.40;62.40
8420;DHT22;4247;48.550;8.822;2023-06-14T08:13:43;23.10;63.00
8420;DHT22;4247;48.550;8.822;2023-06-14T08:16:11;23.10;63.50
8420;DHT22;4247;48.550;8.822;2023-06-14T08:18:37;22.90;61.30
8420;DHT22;4247;48.550;8.822;2023-06-14T08:21:04;22.90;63.10
8420;DHT22;4247;48.550;8.822;2023-06-14T08:23:31;22.70;63.10
8420;DHT22;4247;48.550;8.822;2023-06-14T08:25:57;22.70;62.60
8420;DHT22;4247;48.550;8.822;2023-06-14T08:28:26;22.60;63.80
8420;DHT22;4247;48.550;8.822;2023-06-14T08:30:53;22.70;63.80
8420;DHT22;4247;48.550;8.822;2023-06-14T08:33:22;22.60;63.10
8420;DHT22;4247;48.550;8.822;2023-06-14T08:35:49;22.50;63.10
8420;DHT22;4247;48.550;8.822;2023-06-14T08:38:15;22.30;64.40
8420;DHT22;4247;48.550;8.822;2023-06-14T08:40:42;22.20;63.80
8420;DHT22;4247;48.550;8.822;2023-06-14T08:43:09;22.10;64.00
8420;DHT22;4247;48.550;8.822;2023-06-14T08:45:36;22.20;63.90
8420;DHT22;4247;48.550;8.822;2023-06-14T08:48:03;22.20;63.10
8420;DHT22;4247;48.550;8.822;2023-06-14T08:50:32;22.20;62.80
8420;DHT22;4247;48.550;8.822;2023-06-14T08:53:01;22.20;62.70
8420;DHT22;4247;48.550;8.822;2023-06-14T08:55:29;22.30;61.00
8420;DHT22;4247;48.550;8.822;2023-06-14T08:57:57;22.50;59.60
8420;DHT22;4247;48.550;8.822;2023-06-14T09:00:25;22.60;60.00
8420;DHT22;4247;48.550;8.822;2023-06-14T09:02:53;22.80;60.20
8420;DHT22;4247;48.550;8.822;2023-06-14T09:05:24;22.70;58.50
8420;DHT22;4247;48.550;8.822;2023-06-14T09:07:53;22.80;59.60
8420;DHT22;4247;48.550;8.822;2023-06-14T09:10:21;22.80;58.10
8420;DHT22;4247;48.550;8.822;2023-06-14T09:12:48;22.70;58.00
8420;DHT22;4247;48.550;8.822;2023-06-14T09:15:15;22.80;59.30
8420;DHT22;4247;48.550;8.822;2023-06-14T09:17:42;22.90;60.30
8420;DHT22;4247;48.550;8.822;2023-06-14T09:20:10;23.10;59.20
8420;DHT22;4247;48.550;8.822;2023-06-14T09:22:39;23.20;60.70
8420;DHT22;4247;48.550;8.822;2023-06-14T09:25:09;23.30;59.00
8420;DHT22;4247;48.550;8.822;2023-06-14T09:27:36;23.20;57.50
8420;DHT22;4247;48.550;8.822;2023-06-14T09:30:05;23.20;57.60
8420;DHT22;4247;48.550;8.822;2023-06-14T09:32:36;23.30;59.50
8420;DHT22;4247;48.550;8.822;2023-06-14T09:35:04;23.40;58.90
8420;DHT22;4247;48.550;8.822;2023-06-14T09:37:32;23.40;57.80
8420;DHT22;4247;48.550;8.822;2023-06-14T09:39:59;23.40;56.80
8420;DHT22;4247;48.550;8.822;2023-06-14T09:42:27;23.30;54.90
8420;DHT22;4247;48.550;8.822;2023-06-14T09:44:55;23.20;54.60
8420;DHT22;4247;48.550;8.822;2023-06-14T09:47:23;23.10;55.60
8420;DHT22;4247;48.550;8.822;2023-06-14T09:49:50;23.20;55.50
8420;DHT22;4247;48.550;8.822;2023-06-14T09:52:20;23.20;55.50
8420;DHT22;4247;48.550;8.822;2023-06-14T09:54:48;23.30;56.80
8420;DHT22;4247;48.550;8.822;2023-06-14T09:57:16;23.10;55.00
8420;DHT22;4247;48.550;8.822;2023-06-14T09:59:46;23.20;57.30
8420;DHT22;4247;48.550;8.822;2023-06-14T10:02:22;23.20;58.70
8420;DHT22;4247;48.550;8.822;2023-06-14T10:04:56;23.00;56.70
8420;DHT22;4247;48.550;8.822;2023-06-14T10:07:26;22.80;57.40
8420;DHT22;4247;48.550;8.822;2023-06-14T10:09:57;22.60;57.20
8420;DHT22;4247;48.550;8.822;2023-06-14T10:12:25;22.60;58.10
8420;DHT22;4247;48.550;8.822;2023-06-14T10:14:53;22.70;59.00
8420;DHT22;4247;48.550;8.822;2023-06-14T10:17:27;22.80;59.20
8420;DHT22;4247;48.550;8.822;2023-06-14T10:20:02;22.50;59.60
8420;DHT22;4247;48.550;8.822;2023-06-14T10:22:37;22.40;59.30
8420;DHT22;4247;48.550;8.822;2023-06-14T10:25:07;22.50;58.90
8420;DHT22;4247;48.550;8.822;2023-06-14T10:27:37;22.50;58.00
8420;DHT22;4247;48.550;8.822;2023-06-14T10:30:08;22.60;58.00
8420;DHT22;4247;48.550;8.822;2023-06-14T10:32:35;22.50;57.80
8420;DHT22;4247;48.550;8.822;2023-06-14T10:35:04;22.70;58.80
8420;DHT22;4247;48.550;8.822;2023-06-14T10:37:32;22.80;59.10
8420;DHT22;4247;48.550;8.822;2023-06-14T10:39:59;22.80;58.50
8420;DHT22;4247;48.550;8.822;2023-06-14T10:42:31;22.80;58.60
8420;DHT22;4247;48.550;8.822;2023-06-14T10:44:58;22.90;57.90
8420;DHT22;4247;48.550;8.822;2023-06-14T10:47:30;23.00;57.50
8420;DHT22;4247;48.550;8.822;2023-06-14T10:50:03;22.90;57.10
8420;DHT22;4247;48.550;8.822;2023-06-14T10:52:33;22.90;57.50
8420;DHT22;4247;48.550;8.822;2023-06-14T10:55:05;23.00;58.10
8420;DHT22;4247;48.550;8.822;2023-06-14T10:57:35;23.10;58.50
8420;DHT22;4247;48.550;8.822;2023-06-14T11:00:04;23.10;57.60
8420;DHT22;4247;48.550;8.822;2023-06-14T11:03:24;23.10;59.30
8420;DHT22;4247;48.550;8.822;2023-06-14T11:05:56;23.10;57.20
8420;DHT22;4247;48.550;8.822;2023-06-14T11:11:32;23.00;57.80
8420;DHT22;4247;48.550;8.822;2023-06-14T11:13:59;23.00;57.70
8420;DHT22;4247;48.550;8.822;2023-06-14T11:16:27;22.90;55.70
8420;DHT22;4247;48.550;8.822;2023-06-14T11:18:55;22.90;56.10
8420;DHT22;4247;48.550;8.822;2023-06-14T11:21:24;22.90;57.60
8420;DHT22;4247;48.550;8.822;2023-06-14T11:23:56;22.90;57.20
8420;DHT22;4247;48.550;8.822;2023-06-14T11:26:27;22.90;56.50
8420;DHT22;4247;48.550;8.822;2023-06-14T11:28:57;22.90;55.60
8420;DHT22;4247;48.550;8.822;2023-06-14T11:31:24;22.90;55.60
8420;DHT22;4247;48.550;8.822;2023-06-14T11:33:54;22.80;54.80
8420;DHT22;4247;48.550;8.822;2023-06-14T11:36:22;22.80;53.80
8420;DHT22;4247;48.550;8.822;2023-06-14T11:38:49;22.80;53.80
8420;DHT22;4247;48.550;8.822;2023-06-14T11:41:16;22.80;54.60
8420;DHT22;4247;48.550;8.822;2023-06-14T11:43:42;22.90;56.40
8420;DHT22;4247;48.550;8.822;2023-06-14T11:46:13;22.90;56.10
8420;DHT22;4247;48.550;8.822;2023-06-14T11:48:42;22.90;55.80
8420;DHT22;4247;48.550;8.822;2023-06-14T11:51:10;22.80;54.70
8420;DHT22;4247;48.550;8.822;2023-06-14T11:53:37;22.80;55.80
8420;DHT22;4247;48.550;8.822;2023-06-14T11:56:04;22.80;54.60
8420;DHT22;4247;48.550;8.822;2023-06-14T11:58:31;22.80;54.80
8420;DHT22;4247;48.550;8.822;2023-06-14T12:00:58;22.80;54.30
8420;DHT22;4247;48.550;8.822;2023-06-14T12:03:25;22.90;55.00
8420;DHT22;4247;48.550;8.822;2023-06-14T12:06:02;22.90;54.70
8420;DHT22;4247;48.550;8.822;2023-06-14T12:08:34;22.80;54.00
8420;DHT22;4247;48.550;8.822;2023-06-14T12:11:04;22.80;55.70
8420;DHT22;4247;48.550;8.822;2023-06-14T12:13:31;22.80;54.40
8420;DHT22;4247;48.550;8.822;2023-06-14T12:15:57;22.70;55.20
8420;DHT22;4247;48.550;8.822;2023-06-14T12:18:32;22.70;54.60
8420;DHT22;4247;48.550;8.822;2023-06-14T12:20:59;22.70;55.40
8420;DHT22;4247;48.550;8.822;2023-06-14T12:23:40;22.70;55.10
8420;DHT22;4247;48.550;8.822;2023-06-14T12:26:08;22.80;56.00
8420;DHT22;4247;48.550;8.822;2023-06-14T12:28:35;22.80;54.10
8420;DHT22;4247;48.550;8.822;2023-06-14T12:31:02;22.80;55.40
8420;DHT22;4247;48.550;8.822;2023-06-14T12:33:28;22.70;54.00
8420;DHT22;4247;48.550;8.822;2023-06-14T12:35:55;22.70;54.90
8420;DHT22;4247;48.550;8.822;2023-06-14T12:38:23;22.50;54.50
8420;DHT22;4247;48.550;8.822;2023-06-14T12:40:51;22.60;56.70
8420;DHT22;4247;48.550;8.822;2023-06-14T12:43:18;22.70;56.50
8420;DHT22;4247;48.550;8.822;2023-06-14T12:45:44;22.70;55.00
8420;DHT22;4247;48.550;8.822;2023-06-14T12:48:11;22.60;53.80
8420;DHT22;4247;48.550;8.822;2023-06-14T12:50:38;22.60;53.70
8420;DHT22;4247;48.550;8.822;2023-06-14T12:53:04;22.60;54.10
8420;DHT22;4247;48.550;8.822;2023-06-14T12:55:32;22.60;53.90
8420;DHT22;4247;48.550;8.822;2023-06-14T12:58:00;22.70;55.30
8420;DHT22;4247;48.550;8.822;2023-06-14T13:00:27;22.70;57.10
8420;DHT22;4247;48.550;8.822;2023-06-14T13:02:55;22.70;56.30
8420;DHT22;4247;48.550;8.822;2023-06-14T13:05:22;22.60;56.90
8420;DHT22;4247;48.550;8.822;2023-06-14T13:07:49;22.50;55.70
8420;DHT22;4247;48.550;8.822;2023-06-14T13:10:16;22.50;55.30
8420;DHT22;4247;48.550;8.822;2023-06-14T13:12:43;22.60;55.60
8420;DHT22;4247;48.550;8.822;2023-06-14T13:15:11;22.60;56.30
8420;DHT22;4247;48.550;8.822;2023-06-14T13:17:38;22.70;57.30
8420;DHT22;4247;48.550;8.822;2023-06-14T13:20:06;22.70;55.80
8420;DHT22;4247;48.550;8.822;2023-06-14T13:22:33;22.70;56.90
8420;DHT22;4247;48.550;8.822;2023-06-14T13:25:00;22.80;56.50
8420;DHT22;4247;48.550;8.822;2023-06-14T13:27:27;22.80;56.20
8420;DHT22;4247;48.550;8.822;2023-06-14T13:29:54;22.80;56.30
8420;DHT22;4247;48.550;8.822;2023-06-14T13:32:22;22.90;56.20
8420;DHT22;4247;48.550;8.822;2023-06-14T13:34:49;22.80;55.50
8420;DHT22;4247;48.550;8.822;2023-06-14T13:37:16;22.80;55.00
8420;DHT22;4247;48.550;8.822;2023-06-14T13:39:43;22.80;55.60
8420;DHT22;4247;48.550;8.822;2023-06-14T13:42:09;22.70;55.40
8420;DHT22;4247;48.550;8.822;2023-06-14T13:44:37;22.80;55.90
8420;DHT22;4247;48.550;8.822;2023-06-14T13:47:04;22.70;55.30
8420;DHT22;4247;48.550;8.822;2023-06-14T13:49:32;22.60;55.90
8420;DHT22;4247;48.550;8.822;2023-06-14T13:52:00;22.60;55.10
8420;DHT22;4247;48.550;8.822;2023-06-14T13:54:27;22.60;55.70
8420;DHT22;4247;48.550;8.822;2023-06-14T13:56:54;22.60;54.80
8420;DHT22;4247;48.550;8.822;2023-06-14T13:59:20;22.50;55.80
8420;DHT22;4247;48.550;8.822;2023-06-14T14:01:47;22.60;55.30
8420;DHT22;4247;48.550;8.822;2023-06-14T14:04:14;22.50;55.00
8420;DHT22;4247;48.550;8.822;2023-06-14T14:06:42;22.50;55.60
8420;DHT22;4247;48.550;8.822;2023-06-14T14:09:09;22.50;56.10
8420;DHT22;4247;48.550;8.822;2023-06-14T14:11:36;22.50;57.20
8420;DHT22;4247;48.550;8.822;2023-06-14T14:14:05;22.60;57.60
8420;DHT22;4247;48.550;8.822;2023-06-14T14:16:31;22.60;56.50
8420;DHT22;4247;48.550;8.822;2023-06-14T14:18:58;22.50;56.30
8420;DHT22;4247;48.550;8.822;2023-06-14T14:21:25;22.50;57.30
8420;DHT22;4247;48.550;8.822;2023-06-14T14:23:53;22.50;56.60
8420;DHT22;4247;48.550;8.822;2023-06-14T14:26:20;22.50;57.90
8420;DHT22;4247;48.550;8.822;2023-06-14T14:28:47;22.60;57.50
8420;DHT22;4247;48.550;8.822;2023-06-14T14:31:13;22.60;57.60
8420;DHT22;4247;48.550;8.822;2023-06-14T14:33:40;22.60;57.10
8420;DHT22;4247;48.550;8.822;2023-06-14T14:36:07;22.50;56.30
8420;DHT22;4247;48.550;8.822;2023-06-14T14:38:34;22.50;56.70
8420;DHT22;4247;48.550;8.822;2023-06-14T14:41:02;22.50;57.30
8420;DHT22;4247;48.550;8.822;2023-06-14T14:43:28;22.60;57.00
8420;DHT22;4247;48.550;8.822;2023-06-14T14:45:56;22.50;55.50
8420;DHT22;4247;48.550;8.822;2023-06-14T14:48:23;22.60;55.70
8420;DHT22;4247;48.550;8.822;2023-06-14T14:50:50;22.60;56.70
8420;DHT22;4247;48.550;8.822;2023-06-14T14:53:17;22.60;55.70
8420;DHT22;4247;48.550;8.822;2023-06-14T14:55:43;22.60;56.70
8420;DHT22;4247;48.550;8.822;2023-06-14T14:58:12;22.60;54.90
8420;DHT22;4247;48.550;8.822;2023-06-14T15:00:42;22.60;55.10
8420;DHT22;4247;48.550;8.822;2023-06-14T15:03:09;22.50;54.90
8420;DHT22;4247;48.550;8.822;2023-06-14T15:05:35;22.50;55.70
8420;DHT22;4247;48.550;8.822;2023-06-14T15:08:03;22.50;55.50
8420;DHT22;4247;48.550;8.822;2023-06-14T15:10:30;22.50;56.70
8420;DHT22;4247;48.550;8.822;2023-06-14T15:12:57;22.50;56.60
8420;DHT22;4247;48.550;8.822;2023-06-14T15:15:26;22.50;56.40
8420;DHT22;4247;48.550;8.822;2023-06-14T15:17:52;22.50;57.10
8420;DHT22;4247;48.550;8.822;2023-06-14T15:20:19;22.50;56.80
8420;DHT22;4247;48.550;8.822;2023-06-14T15:22:46;22.50;56.20
8420;DHT22;4247;48.550;8.822;2023-06-14T15:25:12;22.40;55.80
8420;DHT22;4247;48.550;8.822;2023-06-14T15:27:39;22.40;55.80
8420;DHT22;4247;48.550;8.822;2023-06-14T15:30:07;22.50;56.70
8420;DHT22;4247;48.550;8.822;2023-06-14T15:32:35;22.50;56.40
8420;DHT22;4247;48.550;8.822;2023-06-14T15:35:02;22.50;55.40
8420;DHT22;4247;48.550;8.822;2023-06-14T15:37:29;22.50;55.50
8420;DHT22;4247;48.550;8.822;2023-06-14T15:39:55;22.50;55.10
8420;DHT22;4247;48.550;8.822;2023-06-14T15:42:22;22.50;55.70
8420;DHT22;4247;48.550;8.822;2023-06-14T15:44:49;22.50;55.50
8420;DHT22;4247;48.550;8.822;2023-06-14T15:47:16;22.50;55.60
8420;DHT22;4247;48.550;8.822;2023-06-14T15:49:44;22.60;56.20
8420;DHT22;4247;48.550;8.822;2023-06-14T15:52:10;22.50;55.30
8420;DHT22;4247;48.550;8.822;2023-06-14T15:54:37;22.60;55.20
8420;DHT22;4247;48.550;8.822;2023-06-14T15:57:04;22.60;54.30
8420;DHT22;4247;48.550;8.822;2023-06-14T15:59:32;22.60;54.80
8420;DHT22;4247;48.550;8.822;2023-06-14T16:01:59;22.60;54.30
8420;DHT22;4247;48.550;8.822;2023-06-14T16:04:25;22.60;55.90
8420;DHT22;4247;48.550;8.822;2023-06-14T16:06:53;22.60;56.10
8420;DHT22;4247;48.550;8.822;2023-06-14T16:09:20;22.60;56.20